Time;durP1;ratioP1;P1;durP2;ratioP2;P2;SDS_P1;SDS_P2;PMS_P1;PMS_P2;Temp;Humidity;BMP_temperature;BMP_pressure;BME280_temperature;BME280_humidity;BME280_pressure;Samples;Min_cycle;Max_cycle;Signal;HPM_P1;HPM_P2
2021/06/20 02:26:36;;;;;;;1.50;0.90;;;20.90;98.20;;;;;;5425342;23;20486;-80
2021/06/20 02:29:02;;;;;;;1.50;0.90;;;20.90;98.20;;;;;;4987014;28;20496;-83
2021/06/20 02:31:29;;;;;;;1.50;1.00;;;21.00;98.20;;;;;;4967669;28;20853;-80
2021/06/20 02:33:56;;;;;;;1.50;0.90;;;21.00;98.20;;;;;;4983250;28;20466;-79
2021/06/20 02:36:23;;;;;;;1.50;1.00;;;21.10;98.20;;;;;;4968056;28;20481;-83
2021/06/20 02:38:50;;;;;;;1.50;0.90;;;21.10;98.20;;;;;;4982942;28;20638;-78
2021/06/20 02:41:18;;;;;;;1.50;1.00;;;21.10;98.20;;;;;;4967532;28;20567;-80
2021/06/20 02:43:47;;;;;;;1.50;0.90;;;21.00;98.20;;;;;;4972254;28;20466;-82
2021/06/20 02:46:13;;;;;;;1.50;0.90;;;21.00;98.20;;;;;;4962514;28;20589;-79
2021/06/20 02:48:40;;;;;;;1.50;0.90;;;20.90;98.20;;;;;;4972129;28;20995;-81
2021/06/20 02:51:09;;;;;;;1.50;1.00;;;20.90;98.20;;;;;;4965889;28;20478;-79
2021/06/20 02:53:35;;;;;;;1.50;0.90;;;20.90;98.20;;;;;;4985363;28;20462;-81
2021/06/20 02:56:02;;;;;;;1.50;0.93;;;21.00;98.20;;;;;;4963953;28;20466;-84
2021/06/20 02:58:29;;;;;;;1.50;0.90;;;21.00;98.20;;;;;;4979013;28;20462;-86
2021/06/20 03:00:57;;;;;;;1.50;0.90;;;21.00;98.20;;;;;;4966756;28;20466;-79
2021/06/20 03:03:24;;;;;;;1.50;0.90;;;21.00;98.20;;;;;;4998535;23;20886;-85
2021/06/20 03:05:53;;;;;;;1.50;1.00;;;21.10;98.20;;;;;;4965490;28;20461;-84
2021/06/20 03:08:20;;;;;;;1.50;1.00;;;21.10;98.20;;;;;;4984452;28;20466;-84
2021/06/20 03:10:47;;;;;;;1.50;0.90;;;21.10;98.20;;;;;;4992489;28;20467;-86
2021/06/20 03:13:14;;;;;;;1.50;1.00;;;21.10;98.20;;;;;;5011829;28;20615;-84
2021/06/20 03:15:45;;;;;;;1.50;1.10;;;21.20;98.20;;;;;;5000583;28;20469;-87
2021/06/20 03:18:14;;;;;;;1.50;0.90;;;21.20;98.20;;;;;;4993674;28;20485;-86
2021/06/20 03:20:41;;;;;;;1.50;0.93;;;21.20;98.20;;;;;;4996891;28;21008;-84
2021/06/20 03:23:10;;;;;;;1.50;0.90;;;21.20;98.20;;;;;;5001127;28;20519;-83
2021/06/20 03:25:37;;;;;;;1.50;1.00;;;21.20;98.20;;;;;;4993128;28;20882;-86
2021/06/20 03:28:05;;;;;;;1.50;0.90;;;21.30;98.20;;;;;;4998752;28;20543;-85
2021/06/20 03:30:32;;;;;;;1.50;0.90;;;21.30;98.20;;;;;;4993559;28;20496;-85
2021/06/20 03:32:59;;;;;;;1.53;1.00;;;21.30;98.20;;;;;;4999577;28;20571;-88
2021/06/20 03:35:28;;;;;;;1.50;0.90;;;21.30;98.20;;;;;;4990184;28;20491;-85
2021/06/20 03:37:55;;;;;;;1.50;0.90;;;21.30;98.20;;;;;;5003080;28;20579;-85
2021/06/20 03:40:22;;;;;;;1.50;0.90;;;21.20;98.20;;;;;;4994128;28;20481;-87
2021/06/20 03:42:49;;;;;;;1.50;0.90;;;21.20;98.20;;;;;;5001772;28;20488;-86
2021/06/20 03:45:17;;;;;;;1.50;0.90;;;21.10;98.20;;;;;;5003990;28;20468;-85
2021/06/20 03:47:44;;;;;;;1.50;0.90;;;21.10;98.20;;;;;;4998938;28;20719;-87
2021/06/20 03:50:12;;;;;;;1.50;0.90;;;21.10;98.20;;;;;;5006275;28;20995;-84
2021/06/20 03:52:41;;;;;;;1.53;1.00;;;21.00;98.20;;;;;;5004692;28;20585;-86
2021/06/20 03:55:09;;;;;;;1.50;0.90;;;21.10;98.20;;;;;;4996226;28;20465;-90
2021/06/20 03:57:37;;;;;;;1.50;0.90;;;21.10;98.20;;;;;;4998494;28;20480;-85
2021/06/20 04:00:06;;;;;;;1.50;0.90;;;21.10;98.20;;;;;;4997182;28;20524;-85
2021/06/20 04:02:33;;;;;;;1.50;0.90;;;21.10;98.20;;;;;;5002635;28;20484;-85
2021/06/20 04:05:00;;;;;;;1.50;0.90;;;21.20;98.20;;;;;;4996222;28;20580;-84
2021/06/20 04:07:27;;;;;;;1.50;0.90;;;21.20;98.20;;;;;;5005387;28;21033;-84
2021/06/20 04:09:55;;;;;;;1.50;1.10;;;21.20;98.20;;;;;;5012489;28;20571;-86
2021/06/20 04:12:22;;;;;;;1.50;0.90;;;21.20;98.20;;;;;;5001220;28;20499;-86
2021/06/20 04:14:49;;;;;;;1.50;1.00;;;21.20;98.20;;;;;;4996898;28;20457;-86
2021/06/20 04:17:22;;;;;;;1.50;0.90;;;21.10;98.20;;;;;;4995188;28;20936;-86
2021/06/20 04:19:49;;;;;;;1.50;0.90;;;21.10;98.20;;;;;;4994999;28;20481;-84
2021/06/20 04:22:16;;;;;;;1.50;0.90;;;21.10;98.20;;;;;;4999072;28;20550;-84
2021/06/20 04:24:44;;;;;;;4.53;2.40;;;21.10;98.20;;;;;;5004909;28;20472;-87
2021/06/20 04:27:13;;;;;;;1.50;0.97;;;21.10;98.20;;;;;;5006073;28;20480;-86
2021/06/20 04:29:40;;;;;;;1.50;0.90;;;21.10;98.20;;;;;;5006325;28;20500;-86
2021/06/20 04:32:07;;;;;;;1.50;0.90;;;21.10;98.20;;;;;;4995913;28;20575;-85
2021/06/20 04:34:34;;;;;;;1.50;1.00;;;21.10;98.20;;;;;;5002481;28;20530;-85
2021/06/20 04:37:01;;;;;;;1.50;0.90;;;21.20;98.20;;;;;;4992140;28;20483;-85
2021/06/20 04:39:29;;;;;;;1.50;0.90;;;21.20;98.20;;;;;;4999014;28;20953;-82
2021/06/20 04:41:56;;;;;;;1.50;0.90;;;21.20;98.20;;;;;;4991538;28;20582;-84
2021/06/20 04:47:09;;;;;;;1.50;0.90;;;21.20;98.20;;;;;;5004127;28;20531;-85
2021/06/20 04:49:36;;;;;;;1.50;0.90;;;21.30;98.20;;;;;;4999225;28;20943;-86
2021/06/20 04:52:06;;;;;;;1.50;0.90;;;21.30;98.20;;;;;;4998995;28;20488;-83
2021/06/20 04:54:35;;;;;;;1.50;0.90;;;21.30;98.20;;;;;;4999397;28;20527;-85
2021/06/20 04:57:03;;;;;;;1.50;0.90;;;21.30;98.20;;;;;;5002622;28;20494;-85
2021/06/20 04:59:32;;;;;;;1.50;0.97;;;21.40;98.20;;;;;;5000541;28;20484;-85
2021/06/20 05:01:59;;;;;;;1.50;0.90;;;21.50;98.20;;;;;;4992619;28;20480;-86
2021/06/20 05:04:26;;;;;;;1.50;0.90;;;21.50;98.20;;;;;;4997071;28;20551;-87
2021/06/20 05:06:53;;;;;;;1.50;0.90;;;21.50;98.20;;;;;;4991855;28;20498;-85
2021/06/20 05:09:20;;;;;;;1.50;0.90;;;21.50;98.20;;;;;;5002099;28;20488;-86
2021/06/20 05:11:46;;;;;;;1.50;0.90;;;21.60;98.20;;;;;;4990959;28;20476;-87
2021/06/20 05:14:13;;;;;;;1.50;0.90;;;21.60;98.20;;;;;;5002421;28;20456;-85
2021/06/20 05:16:41;;;;;;;1.50;0.90;;;21.70;98.20;;;;;;4986258;28;20482;-87
2021/06/20 05:19:08;;;;;;;1.50;0.90;;;21.90;98.20;;;;;;5005257;28;20865;-85
2021/06/20 05:21:35;;;;;;;2.00;1.63;;;22.10;98.20;;;;;;4985671;28;20476;-87
2021/06/20 05:24:03;;;;;;;1.50;0.90;;;22.30;98.20;;;;;;5002719;28;20474;-87
2021/06/20 05:26:30;;;;;;;1.50;0.90;;;22.60;98.20;;;;;;4998072;28;20479;-85
2021/06/20 05:29:00;;;;;;;1.50;0.90;;;22.80;98.20;;;;;;5003419;28;20493;-86
2021/06/20 05:31:28;;;;;;;1.50;0.90;;;23.00;98.20;;;;;;4982296;28;20551;-84
2021/06/20 05:33:56;;;;;;;1.50;0.90;;;23.20;98.20;;;;;;5009573;28;20461;-87
2021/06/20 05:36:28;;;;;;;1.50;0.90;;;23.50;98.10;;;;;;5007825;28;20578;-87
2021/06/20 05:38:55;;;;;;;1.50;0.90;;;23.70;98.20;;;;;;5016438;28;20806;-86
2021/06/20 05:41:25;;;;;;;1.50;0.90;;;23.80;96.60;;;;;;5012282;28;20480;-85
2021/06/20 05:43:53;;;;;;;1.50;0.90;;;24.00;96.70;;;;;;5015884;28;20461;-88
2021/06/20 05:46:25;;;;;;;1.50;0.90;;;24.20;95.60;;;;;;5002931;28;20492;-84
2021/06/20 05:48:52;;;;;;;1.50;0.90;;;24.30;94.50;;;;;;5005785;28;20487;-87
2021/06/20 05:51:20;;;;;;;1.53;0.87;;;24.30;93.50;;;;;;5002166;28;20479;-84
2021/06/20 05:53:47;;;;;;;1.50;0.90;;;24.30;92.00;;;;;;5023978;28;20460;-86
2021/06/20 05:56:15;;;;;;;1.50;0.90;;;24.40;92.90;;;;;;5002347;28;20586;-83
2021/06/20 05:58:42;;;;;;;1.50;0.90;;;24.40;92.60;;;;;;5013120;28;20912;-83
2021/06/20 06:01:08;;;;;;;1.50;0.90;;;24.40;91.30;;;;;;4993880;28;20480;-83
2021/06/20 06:03:36;;;;;;;1.50;0.90;;;24.40;91.90;;;;;;5014005;28;21046;-84
2021/06/20 06:06:03;;;;;;;1.50;0.90;;;24.50;91.80;;;;;;5000018;28;20547;-82
2021/06/20 06:08:32;;;;;;;1.50;0.90;;;24.60;91.60;;;;;;5016922;28;20536;-84
2021/06/20 06:10:59;;;;;;;1.50;0.90;;;24.80;91.60;;;;;;5000772;28;20563;-86
2021/06/20 06:13:26;;;;;;;1.50;0.90;;;24.90;91.20;;;;;;5016785;28;20517;-84
2021/06/20 06:15:53;;;;;;;1.57;0.90;;;25.10;90.10;;;;;;4996740;28;20894;-84
2021/06/20 06:18:20;;;;;;;1.50;0.90;;;25.30;89.10;;;;;;5020602;28;20527;-85
2021/06/20 06:20:46;;;;;;;1.50;0.90;;;25.40;89.60;;;;;;4998577;28;20471;-84
2021/06/20 06:23:13;;;;;;;1.57;0.83;;;25.60;88.10;;;;;;5011100;28;20475;-85
2021/06/20 06:25:42;;;;;;;1.50;0.90;;;25.70;87.90;;;;;;5004156;28;20602;-85
2021/06/20 06:28:08;;;;;;;1.50;0.90;;;25.90;88.80;;;;;;5005375;28;20487;-84
2021/06/20 06:30:35;;;;;;;1.50;0.90;;;26.00;86.90;;;;;;5002658;28;20860;-81
2021/06/20 06:33:04;;;;;;;1.57;0.90;;;26.20;86.00;;;;;;5002984;28;20482;-85
2021/06/20 06:35:31;;;;;;;1.57;0.90;;;26.30;85.60;;;;;;5001558;28;20469;-84
2021/06/20 06:37:59;;;;;;;1.50;0.83;;;26.40;85.60;;;;;;5005643;28;20566;-85
2021/06/20 06:40:28;;;;;;;1.50;0.80;;;26.50;85.50;;;;;;4996412;28;20488;-85
2021/06/20 06:42:56;;;;;;;1.50;0.90;;;26.60;84.20;;;;;;4999961;28;20528;-84
2021/06/20 06:45:23;;;;;;;1.50;0.90;;;26.70;83.80;;;;;;4990862;28;20484;-82
2021/06/20 06:47:50;;;;;;;1.50;0.90;;;26.70;83.20;;;;;;5003021;28;20472;-84
2021/06/20 06:50:17;;;;;;;1.50;0.90;;;26.70;84.20;;;;;;5001518;28;20835;-81
2021/06/20 06:52:45;;;;;;;1.50;0.90;;;26.90;83.50;;;;;;4998858;28;20699;-85
2021/06/20 06:55:13;;;;;;;1.50;0.83;;;27.00;82.80;;;;;;5001044;28;20572;-86
2021/06/20 06:57:40;;;;;;;1.50;0.90;;;27.20;83.10;;;;;;4997859;28;21077;-81
2021/06/20 07:00:11;;;;;;;1.50;0.90;;;27.20;82.50;;;;;;5004425;28;20800;-84
2021/06/20 07:02:38;;;;;;;1.50;0.90;;;27.40;82.90;;;;;;4996899;28;20500;-83
2021/06/20 07:05:06;;;;;;;1.50;0.90;;;27.60;81.90;;;;;;4998119;28;21068;-83
2021/06/20 07:07:33;;;;;;;1.50;0.90;;;27.60;80.80;;;;;;4992499;28;20487;-84
2021/06/20 07:10:00;;;;;;;1.50;0.90;;;27.60;81.20;;;;;;4992476;28;20536;-84
2021/06/20 07:12:29;;;;;;;1.50;0.80;;;27.70;81.20;;;;;;4993114;28;20820;-77
2021/06/20 07:14:57;;;;;;;1.50;0.90;;;27.70;79.90;;;;;;4994039;28;20464;-82
2021/06/20 07:17:25;;;;;;;1.50;0.90;;;27.80;80.10;;;;;;4993655;28;20849;-80
2021/06/20 07:19:52;;;;;;;1.50;0.80;;;27.80;79.10;;;;;;4997778;28;21003;-84
2021/06/20 07:22:21;;;;;;;1.50;0.90;;;27.80;79.40;;;;;;4985468;28;20519;-83
2021/06/20 07:24:48;;;;;;;1.50;0.90;;;27.80;78.50;;;;;;4994732;28;20456;-84
2021/06/20 07:27:15;;;;;;;1.50;0.90;;;27.90;78.70;;;;;;4995456;28;20502;-84
2021/06/20 07:29:43;;;;;;;1.50;0.80;;;27.90;78.20;;;;;;4996053;28;20480;-85
2021/06/20 07:32:10;;;;;;;1.50;0.80;;;28.00;78.20;;;;;;4995237;28;20945;-83
2021/06/20 07:34:38;;;;;;;1.50;0.90;;;28.00;77.80;;;;;;4998115;28;20472;-80
2021/06/20 07:37:05;;;;;;;1.50;0.90;;;28.20;78.70;;;;;;4999463;28;20634;-82
2021/06/20 07:39:33;;;;;;;1.50;0.90;;;28.30;77.70;;;;;;4997666;28;20487;-80
2021/06/20 07:42:02;;;;;;;1.50;0.90;;;28.30;76.70;;;;;;4990569;28;20495;-83
2021/06/20 07:44:29;;;;;;;1.50;0.80;;;28.30;75.70;;;;;;4997875;28;20499;-82
2021/06/20 07:46:56;;;;;;;1.50;0.90;;;28.40;76.20;;;;;;4986306;28;20563;-81
2021/06/20 07:49:24;;;;;;;1.50;0.80;;;28.20;76.40;;;;;;4999779;28;20484;-80
2021/06/20 07:51:52;;;;;;;1.50;0.90;;;28.00;76.20;;;;;;4987663;28;20519;-80
2021/06/20 07:54:22;;;;;;;1.50;0.90;;;27.80;77.70;;;;;;4999296;28;20471;-82
2021/06/20 07:56:50;;;;;;;1.50;0.90;;;27.60;77.20;;;;;;4986711;28;20501;-82
2021/06/20 07:59:22;;;;;;;1.50;0.80;;;27.50;77.40;;;;;;4997158;28;20499;-80
2021/06/20 08:01:49;;;;;;;1.50;0.90;;;27.40;77.80;;;;;;4996318;28;20482;-80
2021/06/20 08:04:16;;;;;;;1.47;0.80;;;27.30;77.60;;;;;;4995426;28;20559;-82
2021/06/20 08:06:43;;;;;;;1.50;0.80;;;27.30;78.60;;;;;;4999852;28;20479;-81
2021/06/20 08:09:12;;;;;;;1.50;0.90;;;27.50;78.70;;;;;;5009308;28;20602;-80
2021/06/20 08:11:39;;;;;;;1.43;0.80;;;27.80;78.40;;;;;;5000279;28;20933;-79
2021/06/20 08:14:06;;;;;;;1.50;0.90;;;28.00;76.90;;;;;;5000822;28;20506;-78
2021/06/20 08:16:33;;;;;;;1.50;0.90;;;28.30;75.50;;;;;;4988018;28;20487;-81
2021/06/20 08:19:00;;;;;;;1.50;0.87;;;28.40;73.80;;;;;;5003486;28;20492;-81
2021/06/20 08:21:27;;;;;;;1.50;0.80;;;28.60;74.00;;;;;;4984499;28;20554;-79
2021/06/20 08:23:55;;;;;;;1.50;0.80;;;28.80;74.10;;;;;;4997552;28;20465;-77
2021/06/20 08:26:23;;;;;;;1.50;0.83;;;29.00;72.50;;;;;;4990879;28;20481;-76
2021/06/20 08:28:50;;;;;;;1.50;0.80;;;29.10;71.40;;;;;;4998590;28;20480;-77
2021/06/20 08:31:17;;;;;;;1.50;0.90;;;29.10;72.40;;;;;;4981384;28;21110;-79
2021/06/20 08:33:44;;;;;;;1.50;0.80;;;29.20;72.10;;;;;;4999483;28;20487;-76
2021/06/20 08:36:11;;;;;;;1.50;0.80;;;29.30;72.00;;;;;;4982593;28;20476;-81
2021/06/20 08:38:39;;;;;;;1.50;0.80;;;29.40;71.30;;;;;;4999440;28;20688;-80
2021/06/20 08:41:06;;;;;;;1.50;0.90;;;29.50;71.50;;;;;;4980391;28;20485;-75
2021/06/20 08:43:35;;;;;;;1.50;0.80;;;29.40;71.50;;;;;;4998934;28;20658;-76
2021/06/20 08:46:02;;;;;;;1.50;0.90;;;29.40;72.70;;;;;;4977905;28;20985;-75
2021/06/20 08:48:29;;;;;;;1.43;0.80;;;29.40;71.80;;;;;;4998185;28;21095;-76
2021/06/20 08:50:56;;;;;;;1.50;0.80;;;29.40;71.50;;;;;;4980589;28;20477;-76
2021/06/20 08:53:26;;;;;;;1.40;0.83;;;29.60;70.90;;;;;;5001431;28;20463;-77
2021/06/20 08:55:53;;;;;;;1.80;1.10;;;29.70;68.60;;;;;;4977990;28;20612;-76
2021/06/20 08:58:36;;;;;;;1.50;0.80;;;29.60;69.20;;;;;;5004740;28;20515;-75
2021/06/20 09:01:05;;;;;;;1.43;0.80;;;29.60;69.10;;;;;;4975922;28;20504;-77
2021/06/20 09:03:39;;;;;;;1.47;0.90;;;29.70;70.20;;;;;;4998515;28;20480;-75
2021/06/20 09:06:15;;;;;;;1.43;0.80;;;29.80;69.90;;;;;;4980962;28;21168;-77
2021/06/20 09:08:46;;;;;;;1.50;0.90;;;29.90;66.90;;;;;;4999015;28;20491;-77
2021/06/20 09:11:24;;;;;;;1.47;0.83;;;29.90;66.50;;;;;;4982839;28;20479;-78
2021/06/20 09:14:01;;;;;;;1.50;0.80;;;29.80;66.60;;;;;;5002311;28;20467;-76
2021/06/20 09:16:28;;;;;;;1.47;0.80;;;29.60;66.50;;;;;;4998845;28;20570;-76
2021/06/20 09:18:55;;;;;;;1.47;0.90;;;29.70;67.30;;;;;;5003183;28;20488;-76
2021/06/20 09:21:24;;;;;;;1.50;0.80;;;29.90;66.60;;;;;;4983184;28;20475;-76
2021/06/20 09:23:51;;;;;;;1.47;0.80;;;30.10;68.60;;;;;;4999042;28;20464;-76
2021/06/20 09:26:19;;;;;;;1.43;0.83;;;30.40;67.60;;;;;;4985062;28;20483;-76
2021/06/20 09:28:51;;;;;;;1.50;0.80;;;30.40;65.80;;;;;;4998137;28;20484;-75
2021/06/20 09:31:23;;;;;;;1.43;0.80;;;30.50;65.20;;;;;;4993619;28;20541;-77
2021/06/20 09:33:59;;;;;;;1.47;0.80;;;30.60;66.90;;;;;;5004931;28;20503;-77
2021/06/20 09:36:29;;;;;;;1.47;0.80;;;30.80;66.70;;;;;;4987612;28;20479;-75
2021/06/20 09:38:55;;;;;;;1.47;0.80;;;30.90;66.30;;;;;;4998159;28;20488;-77
2021/06/20 09:41:22;;;;;;;1.47;0.80;;;31.10;64.90;;;;;;4989327;28;20489;-77
2021/06/20 09:43:53;;;;;;;1.50;0.80;;;31.20;65.50;;;;;;5010288;28;20464;-76
2021/06/20 09:46:22;;;;;;;1.47;0.80;;;31.10;64.00;;;;;;4985868;28;20510;-75
2021/06/20 09:48:49;;;;;;;1.43;0.90;;;31.10;66.90;;;;;;5002236;28;20862;-78
2021/06/20 09:51:20;;;;;;;1.43;0.80;;;31.20;65.40;;;;;;4987245;28;21069;-75
2021/06/20 09:53:50;;;;;;;1.40;0.80;;;31.30;65.50;;;;;;4998958;28;20495;-77
2021/06/20 09:56:20;;;;;;;1.43;0.80;;;31.40;64.00;;;;;;4986515;28;20472;-77
2021/06/20 09:58:55;;;;;;;1.43;0.80;;;31.40;64.60;;;;;;4999473;28;21003;-77
2021/06/20 10:01:24;;;;;;;1.40;0.80;;;31.20;65.40;;;;;;4998421;28;20746;-76
2021/06/20 10:03:51;;;;;;;1.50;0.80;;;31.10;65.90;;;;;;5004033;28;20221;-76
2021/06/20 10:06:18;;;;;;;1.43;0.80;;;30.80;65.70;;;;;;4987436;28;20562;-76
2021/06/20 10:08:45;;;;;;;1.40;0.80;;;30.60;67.70;;;;;;5003121;28;20480;-76
2021/06/20 10:11:14;;;;;;;1.43;0.80;;;30.60;68.00;;;;;;4996739;28;20765;-76
2021/06/20 10:13:41;;;;;;;1.47;0.80;;;30.50;67.40;;;;;;5003849;28;20530;-77
2021/06/20 10:16:19;;;;;;;1.43;0.90;;;30.40;66.50;;;;;;4996491;28;20499;-76
2021/06/20 10:18:52;;;;;;;1.40;0.90;;;30.20;66.10;;;;;;5002758;28;20510;-78
2021/06/20 10:21:35;;;;;;;1.47;0.90;;;29.90;67.40;;;;;;5002538;28;20534;-76
2021/06/20 10:24:14;;;;;;;1.50;0.80;;;29.90;67.60;;;;;;5010560;28;20884;-76
2021/06/20 10:26:59;;;;;;;1.47;0.90;;;30.10;67.60;;;;;;4985351;28;20476;-80
2021/06/20 10:29:28;;;;;;;1.43;0.80;;;30.40;67.00;;;;;;5003518;28;20490;-77
2021/06/20 10:31:57;;;;;;;1.50;0.80;;;30.60;67.20;;;;;;5005066;28;20913;-77
2021/06/20 10:34:28;;;;;;;1.50;0.80;;;30.90;64.80;;;;;;5005863;28;20487;-77
2021/06/20 10:36:56;;;;;;;1.47;0.80;;;31.20;65.50;;;;;;4978414;28;20626;-78
2021/06/20 10:39:24;;;;;;;1.47;0.80;;;31.40;65.30;;;;;;5001151;28;20231;-78
2021/06/20 10:42:07;;;;;;;1.47;0.80;;;31.50;64.30;;;;;;4998940;28;20487;-78
2021/06/20 10:44:53;;;;;;;1.50;1.00;;;31.40;63.80;;;;;;4995883;28;21192;-78
2021/06/20 10:47:27;;;;;;;1.47;0.80;;;31.40;64.70;;;;;;4988684;28;20487;-79
2021/06/20 10:49:56;;;;;;;1.43;0.80;;;31.30;65.10;;;;;;4995022;28;20538;-79
2021/06/20 10:52:23;;;;;;;1.40;0.80;;;31.30;64.50;;;;;;4994284;28;20827;-77
2021/06/20 10:54:52;;;;;;;1.43;0.80;;;31.30;64.80;;;;;;4997901;28;20529;-78
2021/06/20 10:57:28;;;;;;;1.40;0.83;;;31.20;64.20;;;;;;4995998;28;21893;-78
2021/06/20 10:59:57;;;;;;;1.43;0.80;;;31.10;65.40;;;;;;4994976;28;20492;-78
2021/06/20 11:02:25;;;;;;;1.40;0.80;;;31.20;66.40;;;;;;4999110;28;20507;-78
2021/06/20 11:05:03;;;;;;;1.43;0.80;;;31.40;65.30;;;;;;4996278;28;20965;-76
2021/06/20 11:07:31;;;;;;;1.50;1.03;;;31.60;65.50;;;;;;4994815;28;20484;-77
2021/06/20 11:09:58;;;;;;;1.40;0.80;;;31.80;64.60;;;;;;5000100;28;20503;-77
2021/06/20 11:12:26;;;;;;;1.47;0.80;;;32.00;64.30;;;;;;4996806;28;20579;-75
2021/06/20 11:14:54;;;;;;;1.43;0.80;;;32.30;63.40;;;;;;5000605;28;20472;-74
2021/06/20 11:17:22;;;;;;;1.43;0.90;;;32.50;63.00;;;;;;4995472;28;20279;-73
2021/06/20 11:19:49;;;;;;;1.47;0.80;;;32.50;63.70;;;;;;4995880;28;20845;-76
2021/06/20 11:22:20;;;;;;;1.47;0.90;;;32.50;63.20;;;;;;4992353;28;20251;-77
2021/06/20 11:24:50;;;;;;;1.47;0.80;;;32.60;62.50;;;;;;4994549;28;20328;-77
2021/06/20 11:27:18;;;;;;;1.47;0.80;;;32.80;62.90;;;;;;4996950;28;20746;-75
2021/06/20 11:29:47;;;;;;;1.47;0.80;;;32.80;63.20;;;;;;5005197;28;20584;-76
2021/06/20 11:32:16;;;;;;;1.40;0.80;;;33.00;62.50;;;;;;4999505;28;20251;-76
2021/06/20 11:34:45;;;;;;;1.40;0.80;;;33.10;61.90;;;;;;5005224;28;20352;-76
2021/06/20 11:37:19;;;;;;;1.47;0.80;;;33.10;62.40;;;;;;4998619;28;20244;-76
2021/06/20 11:39:48;;;;;;;1.47;0.80;;;33.10;62.70;;;;;;4992740;28;20231;-77
2021/06/20 11:42:25;;;;;;;1.50;0.80;;;32.90;61.00;;;;;;4990167;28;20231;-76
2021/06/20 11:44:57;;;;;;;1.40;0.80;;;32.60;63.20;;;;;;4989093;28;20263;-76
2021/06/20 11:47:32;;;;;;;1.47;0.80;;;32.40;63.40;;;;;;4985907;28;20234;-75
2021/06/20 11:50:11;;;;;;;1.47;0.83;;;32.30;64.00;;;;;;4992936;28;20500;-75
2021/06/20 11:52:38;;;;;;;1.43;0.80;;;32.40;62.90;;;;;;4998944;28;20224;-76
2021/06/20 11:55:10;;;;;;;1.47;0.80;;;32.50;64.30;;;;;;4991459;28;20212;-76
2021/06/20 11:57:39;;;;;;;1.47;0.87;;;32.60;64.20;;;;;;4998735;28;20228;-76
2021/06/20 12:00:14;;;;;;;1.43;0.80;;;32.60;62.80;;;;;;4992286;28;20259;-75
2021/06/20 12:02:42;;;;;;;1.47;0.80;;;32.50;63.30;;;;;;4998061;28;20601;-76
2021/06/20 12:05:13;;;;;;;1.40;0.80;;;32.50;63.30;;;;;;4992546;28;20263;-77
2021/06/20 12:07:40;;;;;;;1.47;0.80;;;32.50;62.60;;;;;;4993638;28;20221;-76
2021/06/20 12:10:08;;;;;;;1.40;0.80;;;32.40;62.60;;;;;;4990108;28;20658;-77
2021/06/20 12:12:38;;;;;;;1.47;0.80;;;32.30;63.80;;;;;;4993416;28;20233;-75
2021/06/20 12:15:08;;;;;;;1.43;0.80;;;32.30;64.70;;;;;;4995150;28;20201;-77
2021/06/20 12:17:36;;;;;;;1.40;0.80;;;32.30;63.10;;;;;;4991770;28;20228;-75
2021/06/20 12:20:04;;;;;;;1.50;0.80;;;32.50;64.30;;;;;;4988781;28;20237;-75
2021/06/20 12:22:31;;;;;;;1.40;0.80;;;32.70;62.60;;;;;;4989763;28;20419;-75
2021/06/20 12:24:59;;;;;;;1.43;0.80;;;32.70;63.20;;;;;;4989959;28;20248;-75
2021/06/20 12:27:32;;;;;;;1.47;0.80;;;32.50;63.00;;;;;;4990580;28;20228;-75
2021/06/20 12:30:00;;;;;;;1.40;0.80;;;32.30;63.10;;;;;;4989231;28;20489;-76
2021/06/20 12:32:33;;;;;;;1.47;0.80;;;32.20;63.70;;;;;;4992290;28;20232;-76
2021/06/20 12:35:00;;;;;;;1.50;0.80;;;32.00;63.60;;;;;;4997642;28;20713;-75
2021/06/20 12:37:38;;;;;;;1.43;0.83;;;31.90;64.50;;;;;;4996765;28;20237;-75
2021/06/20 12:40:12;;;;;;;1.47;0.80;;;31.90;64.00;;;;;;4987321;28;20233;-74
2021/06/20 12:42:44;;;;;;;1.40;0.80;;;31.80;64.90;;;;;;4997431;28;20232;-76
2021/06/20 12:45:20;;;;;;;1.47;0.87;;;31.80;65.50;;;;;;4998465;28;20997;-76
2021/06/20 12:47:49;;;;;;;1.40;0.80;;;32.00;64.80;;;;;;4997259;28;21024;-77
2021/06/20 12:50:25;;;;;;;1.43;0.80;;;32.10;65.90;;;;;;4990574;28;20549;-76
2021/06/20 12:52:52;;;;;;;1.40;0.80;;;31.90;65.10;;;;;;4995026;28;20716;-76
2021/06/20 12:55:21;;;;;;;1.47;0.80;;;31.90;66.70;;;;;;4992373;28;20547;-75
2021/06/20 12:57:53;;;;;;;1.50;0.80;;;32.20;64.40;;;;;;4992270;28;20610;-76
2021/06/20 13:00:23;;;;;;;1.43;0.80;;;32.50;65.00;;;;;;4990846;28;20761;-75
2021/06/20 13:02:56;;;;;;;1.47;0.80;;;32.80;63.50;;;;;;4993651;28;20260;-75
2021/06/20 13:05:31;;;;;;;1.43;0.80;;;33.00;61.60;;;;;;4992964;28;20295;-75
2021/06/20 13:07:59;;;;;;;1.43;0.80;;;33.10;64.20;;;;;;4988082;28;20236;-76
2021/06/20 13:10:26;;;;;;;1.43;0.80;;;33.40;64.10;;;;;;4996671;28;20235;-77
2021/06/20 13:12:53;;;;;;;1.43;0.80;;;33.60;62.40;;;;;;4999722;28;20251;-77
2021/06/20 13:15:21;;;;;;;1.43;0.80;;;33.70;61.30;;;;;;4987293;28;20202;-76
2021/06/20 13:17:48;;;;;;;1.42;0.80;;;33.90;61.90;;;;;;4992363;28;20271;-76
2021/06/20 13:20:17;;;;;;;1.45;0.80;;;34.00;60.80;;;;;;4993752;28;20869;-76
2021/06/20 13:22:45;;;;;;;1.47;0.80;;;34.20;61.30;;;;;;4995364;28;20315;-75
2021/06/20 13:25:13;;;;;;;1.50;0.80;;;34.10;62.00;;;;;;4987170;28;20249;-76
2021/06/20 13:27:41;;;;;;;1.42;0.80;;;33.90;60.10;;;;;;4990307;28;20319;-77
2021/06/20 13:30:10;;;;;;;1.90;1.10;;;33.70;61.30;;;;;;4991111;28;20218;-76
2021/06/20 13:32:38;;;;;;;1.50;0.80;;;33.50;63.00;;;;;;4989289;28;20616;-75
2021/06/20 13:35:07;;;;;;;1.43;0.80;;;33.20;62.60;;;;;;4988274;28;20239;-76
2021/06/20 13:37:36;;;;;;;1.43;0.90;;;33.00;64.10;;;;;;4988673;28;20738;-76
2021/06/20 13:40:05;;;;;;;1.40;0.80;;;33.10;64.20;;;;;;4987195;28;20809;-76
2021/06/20 13:42:32;;;;;;;1.47;0.80;;;33.40;63.90;;;;;;4983046;28;20599;-75
2021/06/20 13:44:59;;;;;;;1.45;0.80;;;33.80;62.80;;;;;;4989548;28;20293;-76
2021/06/20 13:47:26;;;;;;;1.48;0.80;;;34.10;60.70;;;;;;4987410;28;20323;-75
2021/06/20 13:49:52;;;;;;;1.45;0.80;;;34.20;60.50;;;;;;5000402;28;20231;-76
2021/06/20 13:52:20;;;;;;;1.42;0.80;;;34.40;61.00;;;;;;4994653;28;20267;-76
2021/06/20 13:54:51;;;;;;;1.45;0.80;;;34.50;61.10;;;;;;4991046;28;20676;-76
2021/06/20 13:57:20;;;;;;;1.40;0.80;;;34.70;60.70;;;;;;4993721;28;20245;-75
2021/06/20 13:59:47;;;;;;;1.45;0.80;;;34.80;60.50;;;;;;4990858;28;20244;-75
2021/06/20 14:02:13;;;;;;;1.42;0.80;;;34.90;61.20;;;;;;4987432;28;20652;-75
2021/06/20 14:04:41;;;;;;;1.42;0.80;;;34.90;60.90;;;;;;4990831;28;20223;-76
2021/06/20 14:07:08;;;;;;;1.40;0.80;;;35.00;59.90;;;;;;4986578;28;20239;-76
2021/06/20 14:09:34;;;;;;;1.40;0.80;;;34.90;59.80;;;;;;4992525;28;20684;-76
2021/06/20 14:12:03;;;;;;;1.40;0.80;;;34.60;59.20;;;;;;4985904;28;20257;-77
2021/06/20 14:14:30;;;;;;;1.45;0.80;;;34.40;60.80;;;;;;4991669;28;20587;-76
2021/06/20 14:16:57;;;;;;;1.40;0.80;;;34.10;61.00;;;;;;4983771;28;20239;-75
2021/06/20 14:19:24;;;;;;;1.40;0.80;;;33.70;60.90;;;;;;4990662;28;20275;-76
2021/06/20 14:21:51;;;;;;;1.47;0.80;;;33.40;61.30;;;;;;4979045;28;20321;-76
2021/06/20 14:24:24;;;;;;;1.50;0.80;;;33.00;62.80;;;;;;4996610;28;20241;-75
2021/06/20 14:26:52;;;;;;;1.43;0.80;;;32.70;62.40;;;;;;4987376;28;20233;-76
2021/06/20 14:29:20;;;;;;;1.47;0.80;;;32.50;64.00;;;;;;5000244;28;20239;-77
2021/06/20 14:31:47;;;;;;;1.43;0.80;;;32.30;63.60;;;;;;4988491;28;20307;-77
2021/06/20 14:34:14;;;;;;;1.43;0.80;;;32.20;64.50;;;;;;5000489;28;20704;-77
2021/06/20 14:36:41;;;;;;;1.50;0.80;;;32.00;64.50;;;;;;4987647;28;20283;-78
2021/06/20 14:39:08;;;;;;;1.43;0.80;;;31.90;64.00;;;;;;4999846;28;20252;-78
2021/06/20 14:41:34;;;;;;;1.43;0.80;;;31.90;63.90;;;;;;4994967;28;20726;-77
2021/06/20 14:44:02;;;;;;;1.43;0.80;;;31.90;64.70;;;;;;5009080;28;20582;-75
2021/06/20 14:46:30;;;;;;;1.40;0.80;;;32.00;65.40;;;;;;4990886;28;20596;-76
2021/06/20 14:48:57;;;;;;;1.43;0.80;;;32.00;63.60;;;;;;5002787;28;20503;-77
2021/06/20 14:51:24;;;;;;;1.43;0.90;;;32.00;64.90;;;;;;4990082;28;20479;-75
2021/06/20 14:53:53;;;;;;;1.43;0.80;;;32.10;65.50;;;;;;5008623;28;20543;-75
2021/06/20 14:56:20;;;;;;;1.43;0.80;;;32.20;63.90;;;;;;4986733;28;20239;-75
2021/06/20 14:58:47;;;;;;;1.40;0.80;;;32.30;64.10;;;;;;4999515;28;20943;-76
2021/06/20 15:01:14;;;;;;;1.50;0.80;;;32.30;64.90;;;;;;4987355;28;20250;-76
2021/06/20 15:03:42;;;;;;;1.40;0.80;;;32.30;63.90;;;;;;5000374;28;20209;-76
2021/06/20 15:06:12;;;;;;;1.47;0.80;;;32.20;63.30;;;;;;4989032;28;20232;-76
2021/06/20 15:08:39;;;;;;;1.43;0.80;;;32.00;63.90;;;;;;5010657;28;20500;-76
2021/06/20 15:11:06;;;;;;;1.43;0.90;;;31.80;63.60;;;;;;4987029;28;20482;-75
2021/06/20 15:13:33;;;;;;;1.47;0.80;;;31.60;65.20;;;;;;5009877;28;21018;-75
2021/06/20 15:16:08;;;;;;;1.47;0.80;;;31.40;64.40;;;;;;4986041;28;20456;-76
2021/06/20 15:18:35;;;;;;;1.47;0.80;;;31.20;64.70;;;;;;5000962;28;20500;-76
2021/06/20 15:21:03;;;;;;;1.43;0.80;;;31.00;65.20;;;;;;4982960;28;20650;-78
2021/06/20 15:23:30;;;;;;;1.43;0.80;;;30.80;66.40;;;;;;5000640;28;21066;-76